尖沙咀 中環 長洲 西貢 太平山
風場分佈
雷達圖

衛星雲圖
Δp時間序列

香港空氣質素
2019-01-18 21:00

監測站AQHIAQI
中西區4103
觀塘492
大埔495
東涌5106
東區493
沙田470
將軍澳486
塔門485
元朗5112
屯門4124
葵涌482
深水埗491
荃灣4101
銅鑼灣5142
中環5118
旺角4110


香港現時天氣


氣溫 | 相對濕度 | 風寒指數 | 最高氣溫
最低氣溫 | 十分鐘風 | 十分鐘陣風 | 雨量 | 氣壓
一小時風 | 一小時陣風 | 能見度
// : 氣溫(攝氏)
香港天氣預報
18/01/2019 21:45 發出

一股偏東氣流正影響廣東沿岸。同時,一道雲帶覆 蓋該區。

本港地區今晚及明日天氣預測

大致多雲。氣溫介乎17至20度。明日稍後有一兩陣 雨。吹和緩偏東風。

展望:星期日大致多雲及有幾陣雨。下週初氣溫顯 著下降,天色好轉。


香港九天天氣預報
18/01/2019 16:30 發出

九天天氣預報

受一股偏東氣流影響,週末期間華南沿岸雲量較多 及有幾陣雨。預料一股東北季候風會在下週初抵達
華南沿岸,該區氣溫顯著下降。受乾燥的大陸氣流 影響,下週大部分時間華南普遍晴朗,內陸地區日 夜溫差頗大。

一月十九日(星期六)
東風4級。 大致多雲。稍後有一兩陣雨。
氣溫:17至20度。 相對濕度:百分之70至90。

一月二十日(星期日)
東至東北風4級。 大致多雲,有幾陣雨。
氣溫:18至21度。 相對濕度:百分之75至95。

一月二十一日(星期一)
北至東北風4至5級。
部分時間有陽光。初時有一兩陣雨。氣溫顯著下降。
氣溫:14至18度。 相對濕度:百分之70至95。

一月二十二日(星期二)
北至東北風4級。 天晴乾燥。早上相當清涼。
氣溫:13至18度。 相對濕度:百分之45至70。

一月二十三日(星期三)
東至東北風4至5級。 天晴乾燥。早上相當清涼。
氣溫:14至19度。 相對濕度:百分之50至75。

一月二十四日(星期四)
東至東北風4級。 天晴乾燥。
氣溫:15至20度。 相對濕度:百分之55至85。

一月二十五日(星期五)
東至東北風4級。 天晴,日間乾燥。
氣溫:16至21度。 相對濕度:百分之60至85。

一月二十六日(星期六)
東至東北風4級。 大致天晴,日間乾燥。
氣溫:16至21度。 相對濕度:百分之60至85。

一月二十七日(星期日)
東至東北風4級。 大致天晴,日間乾燥。
氣溫:16至20度。 相對濕度:百分之60至85。


主要機場天氣及預報
VHHH 181330Z 07005KT 050V120 9999 SCT030 19/12 Q1021 NOSIG
TAF VHHH 181100Z 1812/1918 06010KT 8000 FEW025 TX20/1906Z TN16/1823Z
TEMPO 1812/1818 VRB05KT
TEMPO 1912/1918 VRB05KT


Facebook 專頁
天氣專欄
氣象人語
寒冷天氣甚麼時候開始?


天氣商店